createdAt,value
2023-01-12T00:02:00.625Z,100219.16
2023-01-12T00:04:30.624Z,100240.09
2023-01-12T00:06:58.468Z,100258.38
2023-01-12T00:09:26.096Z,100245.69
2023-01-12T00:11:53.677Z,100244.66
2023-01-12T00:14:21.248Z,100232.06
2023-01-12T00:16:50.175Z,100242.34
2023-01-12T00:19:19.585Z,100240.16
2023-01-12T00:21:58.229Z,100236.56
2023-01-12T00:24:27.294Z,100223.91
2023-01-12T00:26:55.898Z,100203.72
2023-01-12T00:29:24.454Z,100209.84
2023-01-12T00:31:54.537Z,100205.53
2023-01-12T00:34:22.985Z,100209.19
2023-01-12T00:36:50.994Z,100214.66
2023-01-12T00:39:18.772Z,100221.34
2023-01-12T00:42:04.048Z,100211.25
2023-01-12T00:44:49.370Z,100234.44
2023-01-12T00:47:19.442Z,100233.47
2023-01-12T00:49:47.515Z,100233.00
2023-01-12T00:52:29.452Z,100229.72
2023-01-12T00:54:58.666Z,100224.31
2023-01-12T00:57:26.757Z,100235.25
2023-01-12T00:59:55.206Z,100238.09
2023-01-12T01:02:24.862Z,100240.88
2023-01-12T01:04:52.464Z,100239.06
2023-01-12T01:07:21.502Z,100232.47
2023-01-12T01:09:49.306Z,100225.72
2023-01-12T01:12:17.246Z,100237.97
2023-01-12T01:14:44.884Z,100240.25
2023-01-12T01:17:12.505Z,100240.88
2023-01-12T01:19:43.303Z,100238.44
2023-01-12T01:22:12.419Z,100245.53
2023-01-12T01:24:40.057Z,100239.44
2023-01-12T01:27:08.760Z,100232.31
2023-01-12T01:29:36.426Z,100228.50
2023-01-12T01:32:04.204Z,100228.13
2023-01-12T01:34:31.878Z,100227.97
2023-01-12T01:37:01.429Z,100233.53
2023-01-12T01:39:29.020Z,100229.38
2023-01-12T01:41:56.750Z,100243.22
2023-01-12T01:44:50.635Z,100238.25
2023-01-12T01:47:26.402Z,100226.19
2023-01-12T01:49:56.460Z,100235.13
2023-01-12T01:52:31.575Z,100226.72
2023-01-12T01:55:02.851Z,100225.25
2023-01-12T01:57:35.505Z,100223.13
2023-01-12T02:00:06.997Z,100218.03
2023-01-12T02:02:36.296Z,100226.13
2023-01-12T02:05:04.647Z,100222.03
2023-01-12T02:07:33.862Z,100216.91
2023-01-12T02:10:01.846Z,100226.66
2023-01-12T02:12:47.272Z,100221.38
2023-01-12T02:15:33.086Z,100222.22
2023-01-12T02:18:15.694Z,100224.66
2023-01-12T02:20:50.458Z,100224.66
2023-01-12T02:23:49.587Z,100209.97
2023-01-12T02:27:03.322Z,100210.31
2023-01-12T02:30:15.580Z,100208.22
2023-01-12T02:32:56.316Z,100210.88
2023-01-12T02:35:32.293Z,100211.88
2023-01-12T02:38:08.919Z,100197.66
2023-01-12T02:40:45.435Z,100201.75
2023-01-12T02:43:17.823Z,100203.69
2023-01-12T02:45:53.106Z,100201.34
2023-01-12T02:48:28.394Z,100205.91
2023-01-12T02:51:00.903Z,100210.84
2023-01-12T02:53:33.359Z,100208.31
2023-01-12T02:56:04.866Z,100209.44
2023-01-12T02:58:37.451Z,100199.34
2023-01-12T03:01:06.651Z,100197.50
2023-01-12T03:03:39.601Z,100196.97
2023-01-12T03:06:08.813Z,100195.78
2023-01-12T03:08:40.233Z,100188.28
2023-01-12T03:11:14.075Z,100202.16
2023-01-12T03:13:47.015Z,100205.63
2023-01-12T03:16:18.710Z,100208.13
2023-01-12T03:18:52.167Z,100209.47
2023-01-12T03:21:26.215Z,100206.19
2023-01-12T03:24:01.254Z,100202.88
2023-01-12T03:26:31.599Z,100207.19
2023-01-12T03:29:06.284Z,100197.59
2023-01-12T03:31:34.371Z,100190.47
2023-01-12T03:34:04.425Z,100190.31
2023-01-12T03:36:46.085Z,100189.13
2023-01-12T03:39:21.155Z,100184.66
2023-01-12T03:41:57.413Z,100186.28
2023-01-12T03:44:35.478Z,100183.47
2023-01-12T03:47:11.057Z,100185.75
2023-01-12T03:49:46.719Z,100187.22
2023-01-12T03:52:15.164Z,100183.94
2023-01-12T03:54:45.015Z,100182.75
2023-01-12T03:57:13.912Z,100176.63
2023-01-12T03:59:42.515Z,100172.97
2023-01-12T04:02:10.091Z,100175.63
2023-01-12T04:04:37.735Z,100167.31
2023-01-12T04:07:06.716Z,100161.19
2023-01-12T04:09:34.363Z,100164.03
2023-01-12T04:12:11.135Z,100152.16
2023-01-12T04:14:39.289Z,100148.44
2023-01-12T04:17:07.269Z,100150.97
2023-01-12T04:19:34.852Z,100150.50
2023-01-12T04:22:20.187Z,100152.06
2023-01-12T04:24:49.412Z,100152.59
2023-01-12T04:27:17.336Z,100146.97
2023-01-12T04:29:45.560Z,100145.69
2023-01-12T04:32:13.255Z,100137.94
2023-01-12T04:34:40.846Z,100136.28
2023-01-12T04:37:08.475Z,100123.44
2023-01-12T04:39:36.076Z,100127.88
2023-01-12T04:42:05.586Z,100122.59
2023-01-12T04:44:34.927Z,100124.44
2023-01-12T04:47:02.516Z,100112.03
2023-01-12T04:49:30.069Z,100120.78
2023-01-12T04:51:57.659Z,100105.75
2023-01-12T04:54:25.590Z,100102.09
2023-01-12T04:56:53.142Z,100099.09
2023-01-12T04:59:22.130Z,100094.44
2023-01-12T05:01:49.722Z,100094.06
2023-01-12T05:04:17.737Z,100092.72
2023-01-12T05:06:45.338Z,100091.56
2023-01-12T05:09:30.498Z,100087.72
2023-01-12T05:12:00.841Z,100083.88
2023-01-12T05:14:30.159Z,100088.66
2023-01-12T05:16:59.455Z,100080.50
2023-01-12T05:19:27.081Z,100077.50
2023-01-12T05:21:54.721Z,100075.47
2023-01-12T05:24:22.332Z,100067.16
2023-01-12T05:26:49.887Z,100050.28
2023-01-12T05:29:17.432Z,100054.84
2023-01-12T05:31:46.609Z,100041.25
2023-01-12T05:34:14.278Z,100041.69
2023-01-12T05:36:42.191Z,100038.47
2023-01-12T05:39:09.770Z,100042.63
2023-01-12T05:41:37.355Z,100035.91
2023-01-12T05:44:03.984Z,100037.00
2023-01-12T05:46:33.245Z,100030.72
2023-01-12T05:49:02.159Z,100019.75
2023-01-12T05:51:30.901Z,100024.66
2023-01-12T05:53:58.513Z,100016.34
2023-01-12T05:56:28.351Z,100009.03
2023-01-12T05:58:58.356Z,100006.38
2023-01-12T06:01:27.165Z,99998.25
2023-01-12T06:03:56.978Z,99991.56
2023-01-12T06:06:27.787Z,99981.78
2023-01-12T06:08:55.711Z,99983.44
2023-01-12T06:11:40.959Z,99979.78
2023-01-12T06:14:10.136Z,99971.84
2023-01-12T06:16:39.090Z,99970.19
2023-01-12T06:19:07.027Z,99974.66
2023-01-12T06:21:36.329Z,99966.53
2023-01-12T06:24:04.065Z,99962.84
2023-01-12T06:26:31.676Z,99957.56
2023-01-12T06:28:59.250Z,99951.88
2023-01-12T06:31:26.884Z,99947.41
2023-01-12T06:33:54.417Z,99942.13
2023-01-12T06:36:21.977Z,99941.94
2023-01-12T06:38:50.934Z,99934.78
2023-01-12T06:41:35.931Z,99925.00
2023-01-12T06:44:03.520Z,99910.75
2023-01-12T06:46:31.575Z,99912.38
2023-01-12T06:48:59.955Z,99899.13
2023-01-12T06:51:27.720Z,99904.66
2023-01-12T06:53:56.661Z,99885.09
2023-01-12T06:56:24.438Z,99883.44
2023-01-12T06:58:52.055Z,99871.19
2023-01-12T07:01:19.850Z,99867.75
2023-01-12T07:03:47.473Z,99853.31
2023-01-12T07:06:15.150Z,99845.16
2023-01-12T07:08:43.322Z,99840.69
2023-01-12T07:11:14.991Z,99833.56
2023-01-12T07:13:42.568Z,99831.72
2023-01-12T07:16:10.279Z,99830.91
2023-01-12T07:18:37.915Z,99833.56
2023-01-12T07:21:06.652Z,99815.81
2023-01-12T07:23:34.837Z,99804.41
2023-01-12T07:26:02.459Z,99806.03
2023-01-12T07:28:33.646Z,99799.94
2023-01-12T07:31:02.442Z,99793.59
2023-01-12T07:33:30.154Z,99789.75
2023-01-12T07:35:58.860Z,99789.34
2023-01-12T07:38:26.653Z,99769.63
2023-01-12T07:40:54.496Z,99767.75
2023-01-12T07:43:22.088Z,99758.41
2023-01-12T07:45:50.998Z,99757.22
2023-01-12T07:48:18.579Z,99750.06
2023-01-12T07:50:46.145Z,99743.38
2023-01-12T07:53:13.760Z,99736.03
2023-01-12T07:55:43.664Z,99724.44
2023-01-12T07:58:11.493Z,99736.47
2023-01-12T08:00:39.138Z,99718.53
2023-01-12T08:03:10.431Z,99711.81
2023-01-12T08:05:39.865Z,99707.75
2023-01-12T08:08:08.321Z,99690.66
2023-01-12T08:10:36.081Z,99692.06
2023-01-12T08:13:03.707Z,99674.13
2023-01-12T08:15:36.769Z,99671.06
2023-01-12T08:18:11.085Z,99660.91
2023-01-12T08:20:38.845Z,99651.28
2023-01-12T08:23:11.056Z,99626.84
2023-01-12T08:25:44.541Z,99625.00
2023-01-12T08:28:18.355Z,99613.38
2023-01-12T08:30:48.606Z,99610.53
2023-01-12T08:33:17.869Z,99612.97
2023-01-12T08:35:47.045Z,99606.84
2023-01-12T08:38:14.777Z,99602.16
2023-01-12T08:41:00.089Z,99606.66
2023-01-12T08:43:45.173Z,99597.47
2023-01-12T08:46:13.016Z,99586.88
2023-01-12T08:48:41.987Z,99575.25
2023-01-12T08:51:10.026Z,99574.44
2023-01-12T08:53:37.601Z,99563.59
2023-01-12T08:56:06.388Z,99543.84
2023-01-12T08:58:33.959Z,99546.50
2023-01-12T09:01:08.626Z,99541.97
2023-01-12T09:03:36.251Z,99525.88
2023-01-12T09:06:12.419Z,99529.94
2023-01-12T09:08:40.001Z,99526.06
2023-01-12T09:11:08.471Z,99535.03
2023-01-12T09:13:36.546Z,99516.28
2023-01-12T09:16:12.735Z,99501.59
2023-01-12T09:18:41.522Z,99500.78
2023-01-12T09:21:12.080Z,99507.91
2023-01-12T09:23:40.247Z,99504.22
2023-01-12T09:26:09.786Z,99523.19
2023-01-12T09:28:38.268Z,99501.34
2023-01-12T09:31:07.930Z,99508.69
2023-01-12T09:33:36.511Z,99510.13
2023-01-12T09:36:06.467Z,99501.75
2023-01-12T09:38:36.188Z,99510.31
2023-01-12T09:41:10.749Z,99505.63
2023-01-12T09:43:56.503Z,99499.06
2023-01-12T09:46:47.768Z,99502.94
2023-01-12T09:49:17.396Z,99506.00
2023-01-12T09:51:53.369Z,99512.31
2023-01-12T09:54:22.469Z,99506.78
2023-01-12T09:56:58.033Z,99517.38
2023-01-12T09:59:44.783Z,99513.28
2023-01-12T10:02:14.234Z,99514.47
2023-01-12T10:04:42.001Z,99529.19
2023-01-12T10:07:15.405Z,99525.06
2023-01-12T10:09:44.666Z,99511.59
2023-01-12T10:12:21.327Z,99498.06
2023-01-12T10:15:05.649Z,99510.53
2023-01-12T10:17:50.550Z,99512.34
2023-01-12T10:20:28.109Z,99511.28
2023-01-12T10:22:59.386Z,99518.41
2023-01-12T10:25:35.834Z,99519.38
2023-01-12T10:28:09.059Z,99531.41
2023-01-12T10:30:39.216Z,99526.47
2023-01-12T10:33:15.416Z,99515.66
2023-01-12T10:35:52.320Z,99521.13
2023-01-12T10:38:23.863Z,99523.16
2023-01-12T10:41:07.485Z,99526.81
2023-01-12T10:43:35.373Z,99520.00
2023-01-12T10:46:11.657Z,99507.91
2023-01-12T10:48:42.687Z,99548.19
2023-01-12T10:51:21.731Z,99536.50
2023-01-12T10:53:52.482Z,99545.31
2023-01-12T10:56:27.492Z,99536.31
2023-01-12T10:58:59.088Z,99548.34
2023-01-12T11:01:26.908Z,99549.38
2023-01-12T11:04:05.439Z,99549.19
2023-01-12T11:06:33.102Z,99550.97
2023-01-12T11:09:18.682Z,99546.47
2023-01-12T11:11:47.653Z,99541.75
2023-01-12T11:14:25.113Z,99546.47
2023-01-12T11:16:52.852Z,99558.13
2023-01-12T11:19:26.666Z,99565.91
2023-01-12T11:22:01.251Z,99562.59
2023-01-12T11:24:37.275Z,99556.25
2023-01-12T11:27:15.768Z,99558.91
2023-01-12T11:29:54.336Z,99564.81
2023-01-12T11:32:32.530Z,99547.22
2023-01-12T11:35:05.590Z,99568.06
2023-01-12T11:37:38.222Z,99554.78
2023-01-12T11:40:16.626Z,99551.53
2023-01-12T11:43:04.956Z,99536.81
2023-01-12T11:45:43.257Z,99549.28
2023-01-12T11:48:21.164Z,99557.44
2023-01-12T11:50:50.933Z,99553.97
2023-01-12T11:53:22.476Z,99569.72
2023-01-12T11:56:01.843Z,99573.56
2023-01-12T11:58:39.228Z,99559.06
2023-01-12T12:01:16.104Z,99558.47
2023-01-12T12:03:55.501Z,99571.72
2023-01-12T12:06:50.065Z,99563.91
2023-01-12T12:09:41.941Z,99548.53
2023-01-12T12:12:17.912Z,99555.53
2023-01-12T12:14:59.406Z,99566.84
2023-01-12T12:17:41.900Z,99572.81
2023-01-12T12:20:19.123Z,99569.31
2023-01-12T12:23:15.227Z,99573.06
2023-01-12T12:25:57.549Z,99589.03
2023-01-12T12:28:48.288Z,99594.94
2023-01-12T12:31:38.692Z,99593.28
2023-01-12T12:34:28.705Z,99602.53
2023-01-12T12:37:06.311Z,99616.63
2023-01-12T12:39:48.993Z,99625.03
2023-01-12T12:42:58.083Z,99617.50
2023-01-12T12:45:38.315Z,99637.38
2023-01-12T12:48:14.441Z,99645.75
2023-01-12T12:50:48.106Z,99653.94
2023-01-12T12:53:21.272Z,99653.50
2023-01-12T12:55:51.549Z,99654.97
2023-01-12T12:58:46.840Z,99667.41
2023-01-12T13:01:56.963Z,99664.38
2023-01-12T13:05:05.329Z,99668.03
2023-01-12T13:07:36.990Z,99682.81
2023-01-12T13:10:20.562Z,99709.00
2023-01-12T13:12:58.033Z,99695.72
2023-01-12T13:15:36.005Z,99708.19
2023-01-12T13:18:05.964Z,99707.41
2023-01-12T13:20:55.642Z,99731.34
2023-01-12T13:24:22.092Z,99733.78
2023-01-12T13:26:52.368Z,99745.47
2023-01-12T13:29:40.670Z,99753.44
2023-01-12T13:32:43.608Z,99763.66
2023-01-12T13:35:40.561Z,99780.00
2023-01-12T13:38:17.008Z,99781.25
2023-01-12T13:40:55.592Z,99780.44
2023-01-12T13:43:27.446Z,99782.06
2023-01-12T13:45:58.818Z,99778.00
2023-01-12T13:48:28.667Z,99794.94
2023-01-12T13:50:59.891Z,99794.53
2023-01-12T13:53:31.863Z,99812.72
2023-01-12T13:56:01.044Z,99814.97
2023-01-12T13:58:30.084Z,99818.44
2023-01-12T14:01:00.171Z,99813.53
2023-01-12T14:03:42.661Z,99827.22
2023-01-12T14:06:24.206Z,99831.72
2023-01-12T14:09:03.607Z,99835.00
2023-01-12T14:12:09.523Z,99833.97
2023-01-12T14:15:12.543Z,99830.31
2023-01-12T14:17:57.450Z,99836.63
2023-01-12T14:20:26.999Z,99851.56
2023-01-12T14:23:13.720Z,99841.53
2023-01-12T14:25:43.680Z,99852.78
2023-01-12T14:28:19.584Z,99864.84
2023-01-12T14:30:50.192Z,99863.41
2023-01-12T14:33:20.344Z,99847.25
2023-01-12T14:35:50.092Z,99870.16
2023-01-12T14:38:20.267Z,99875.47
2023-01-12T14:41:00.635Z,99873.63
2023-01-12T14:43:49.752Z,99883.44
2023-01-12T14:46:28.042Z,99875.69
2023-01-12T14:48:57.965Z,99877.50
2023-01-12T14:51:28.092Z,99876.25
2023-01-12T14:53:58.796Z,99879.28
2023-01-12T14:56:30.925Z,99882.97
2023-01-12T14:59:13.720Z,99882.97
2023-01-12T15:01:42.514Z,99890.72
2023-01-12T15:04:17.718Z,99890.28
2023-01-12T15:06:46.577Z,99891.53
2023-01-12T15:09:27.672Z,99901.28
2023-01-12T15:11:56.641Z,99894.72
2023-01-12T15:14:26.587Z,99908.41
2023-01-12T15:17:12.732Z,99903.88
2023-01-12T15:19:58.298Z,99910.03
2023-01-12T15:22:45.466Z,99910.63
2023-01-12T15:25:32.275Z,99913.28
2023-01-12T15:28:01.465Z,99926.75
2023-01-12T15:30:29.505Z,99923.06
2023-01-12T15:32:57.562Z,99923.25
2023-01-12T15:35:27.636Z,99921.81
2023-01-12T15:37:57.236Z,99935.31
2023-01-12T15:40:25.694Z,99929.78
2023-01-12T15:42:54.033Z,99935.91
2023-01-12T15:45:30.846Z,99928.78
2023-01-12T15:47:58.505Z,99934.09
2023-01-12T15:50:26.111Z,99929.59
2023-01-12T15:52:53.993Z,99931.63
2023-01-12T15:55:23.468Z,99931.63
2023-01-12T15:57:52.218Z,99925.69
2023-01-12T16:00:22.775Z,99934.06
2023-01-12T16:02:53.294Z,99921.56
2023-01-12T16:05:23.061Z,99919.31
2023-01-12T16:07:50.922Z,99920.94
2023-01-12T16:10:18.848Z,99914.78
2023-01-12T16:12:47.831Z,99914.78
2023-01-12T16:15:18.124Z,99924.19
2023-01-12T16:17:45.814Z,99927.50
2023-01-12T16:20:17.409Z,99925.63
2023-01-12T16:22:46.582Z,99939.53
2023-01-12T16:25:15.459Z,99925.44
2023-01-12T16:27:43.362Z,99921.97
2023-01-12T16:30:14.890Z,99921.78
2023-01-12T16:32:46.339Z,99922.78
2023-01-12T16:35:16.431Z,99916.47
2023-01-12T16:37:44.590Z,99919.94
2023-01-12T16:40:13.547Z,99914.44
2023-01-12T16:42:41.141Z,99896.88
2023-01-12T16:45:09.851Z,99902.59
2023-01-12T16:47:37.441Z,99905.25
2023-01-12T16:50:05.586Z,99901.59
2023-01-12T16:52:34.518Z,99901.38
2023-01-12T16:55:02.067Z,99892.59
2023-01-12T16:57:29.667Z,99890.59
2023-01-12T16:59:57.214Z,99886.91
2023-01-12T17:02:24.987Z,99880.41
2023-01-12T17:04:53.381Z,99876.09
2023-01-12T17:07:21.220Z,99874.28
2023-01-12T17:09:50.300Z,99872.22
2023-01-12T17:12:18.425Z,99870.19
2023-01-12T17:14:46.282Z,99862.88
2023-01-12T17:17:14.074Z,99858.16
2023-01-12T17:19:43.477Z,99866.13
2023-01-12T17:22:12.179Z,99853.69
2023-01-12T17:24:41.062Z,99856.34
2023-01-12T17:27:11.519Z,99851.03
2023-01-12T17:29:39.421Z,99849.78
2023-01-12T17:32:08.357Z,99850.19
2023-01-12T17:34:37.766Z,99845.72
2023-01-12T17:37:08.272Z,99843.06
2023-01-12T17:39:36.446Z,99837.13
2023-01-12T17:42:22.419Z,99835.50
2023-01-12T17:44:51.438Z,99839.75
2023-01-12T17:47:19.153Z,99831.81
2023-01-12T17:49:47.750Z,99841.63
2023-01-12T17:52:15.522Z,99838.75
2023-01-12T17:54:43.159Z,99836.31
2023-01-12T17:57:11.095Z,99829.16
2023-01-12T17:59:39.088Z,99832.63
2023-01-12T18:02:08.323Z,99828.13
2023-01-12T18:04:35.990Z,99829.56
2023-01-12T18:07:03.657Z,99829.38
2023-01-12T18:09:31.360Z,99831.00
2023-01-12T18:12:00.216Z,99830.22
2023-01-12T18:14:28.010Z,99830.00
2023-01-12T18:16:55.567Z,99830.81
2023-01-12T18:19:24.573Z,99813.88
2023-01-12T18:21:52.138Z,99816.31
2023-01-12T18:24:19.929Z,99812.66
2023-01-12T18:26:48.118Z,99808.97
2023-01-12T18:29:15.707Z,99813.25
2023-01-12T18:31:43.459Z,99809.59
2023-01-12T18:34:11.516Z,99810.22
2023-01-12T18:36:42.268Z,99798.59
2023-01-12T18:39:14.238Z,99796.53
2023-01-12T18:41:59.217Z,99791.81
2023-01-12T18:44:27.151Z,99781.63
2023-01-12T18:47:12.742Z,99778.78
2023-01-12T18:49:40.674Z,99775.50
2023-01-12T18:52:29.749Z,99772.66
2023-01-12T18:54:58.674Z,99772.03
2023-01-12T18:57:28.747Z,99768.78
2023-01-12T19:00:00.153Z,99763.84
2023-01-12T19:02:28.827Z,99765.91
2023-01-12T19:05:18.900Z,99760.22
2023-01-12T19:08:24.399Z,99757.97
2023-01-12T19:10:52.219Z,99762.88
2023-01-12T19:13:37.260Z,99759.81
2023-01-12T19:16:23.256Z,99752.44
2023-01-12T19:18:50.940Z,99750.78
2023-01-12T19:21:36.115Z,99745.28
2023-01-12T19:24:23.153Z,99740.34
2023-01-12T19:27:10.633Z,99736.25
2023-01-12T19:29:40.533Z,99733.59
2023-01-12T19:32:09.029Z,99724.38
2023-01-12T19:34:36.592Z,99735.00
2023-01-12T19:37:04.967Z,99729.06
2023-01-12T19:39:59.695Z,99715.16
2023-01-12T19:42:45.492Z,99723.91
2023-01-12T19:45:13.329Z,99713.47
2023-01-12T19:47:41.295Z,99707.50
2023-01-12T19:50:10.943Z,99707.09
2023-01-12T19:52:39.512Z,99701.16
2023-01-12T19:55:12.110Z,99699.06
2023-01-12T19:57:40.246Z,99687.81
2023-01-12T20:00:12.883Z,99680.44
2023-01-12T20:02:41.098Z,99684.31
2023-01-12T20:05:13.176Z,99684.91
2023-01-12T20:07:41.345Z,99679.34
2023-01-12T20:10:11.442Z,99677.91
2023-01-12T20:12:39.098Z,99675.03
2023-01-12T20:15:07.583Z,99665.00
2023-01-12T20:17:36.172Z,99671.75
2023-01-12T20:20:08.070Z,99665.16
2023-01-12T20:22:36.110Z,99658.81
2023-01-12T20:25:03.760Z,99660.25
2023-01-12T20:27:33.661Z,99660.25
2023-01-12T20:30:01.756Z,99666.97
2023-01-12T20:32:31.686Z,99655.31
2023-01-12T20:35:00.122Z,99647.09
2023-01-12T20:37:27.811Z,99651.41
2023-01-12T20:39:57.502Z,99653.03
2023-01-12T20:42:25.364Z,99658.13
2023-01-12T20:44:54.372Z,99648.06
2023-01-12T20:47:22.027Z,99653.41
2023-01-12T20:49:49.636Z,99651.56
2023-01-12T20:52:17.233Z,99648.91
2023-01-12T20:54:45.012Z,99645.22
2023-01-12T20:57:12.951Z,99648.69
2023-01-12T20:59:41.040Z,99645.59
2023-01-12T21:02:11.559Z,99654.41
2023-01-12T21:04:39.104Z,99650.94
2023-01-12T21:07:06.768Z,99660.09
2023-01-12T21:09:34.447Z,99653.97
2023-01-12T21:12:02.112Z,99656.41
2023-01-12T21:14:30.022Z,99652.09
2023-01-12T21:16:57.595Z,99646.59
2023-01-12T21:19:26.623Z,99649.44
2023-01-12T21:21:54.191Z,99650.88
2023-01-12T21:24:21.791Z,99635.94
2023-01-12T21:26:49.367Z,99655.97
2023-01-12T21:29:17.057Z,99665.59
2023-01-12T21:31:44.677Z,99646.97
2023-01-12T21:34:12.299Z,99652.06
2023-01-12T21:36:41.242Z,99645.47
2023-01-12T21:39:09.166Z,99648.75
2023-01-12T21:41:56.825Z,99656.31
2023-01-12T21:44:23.425Z,99649.13
2023-01-12T21:46:50.988Z,99641.94
2023-01-12T21:49:18.927Z,99652.16
2023-01-12T21:51:47.881Z,99643.97
2023-01-12T21:54:15.497Z,99630.03
2023-01-12T21:56:43.084Z,99642.72
2023-01-12T21:59:11.707Z,99645.97
2023-01-12T22:01:39.871Z,99653.97
2023-01-12T22:04:07.586Z,99646.78
2023-01-12T22:06:35.241Z,99635.13
2023-01-12T22:09:04.393Z,99636.38
2023-01-12T22:11:31.991Z,99640.22
2023-01-12T22:13:59.556Z,99640.84
2023-01-12T22:16:27.203Z,99646.34
2023-01-12T22:18:54.872Z,99637.78
2023-01-12T22:21:23.654Z,99642.88
2023-01-12T22:23:51.279Z,99642.88
2023-01-12T22:26:20.946Z,99632.59
2023-01-12T22:28:50.208Z,99639.19
2023-01-12T22:31:20.404Z,99626.69
2023-01-12T22:33:48.898Z,99640.84
2023-01-12T22:36:16.583Z,99644.66
2023-01-12T22:38:44.170Z,99634.25
2023-01-12T22:41:13.533Z,99642.44
2023-01-12T22:43:42.452Z,99632.03
2023-01-12T22:46:14.570Z,99639.78
2023-01-12T22:48:42.316Z,99635.28
2023-01-12T22:51:10.024Z,99642.69
2023-01-12T22:53:37.579Z,99623.22
2023-01-12T22:56:06.220Z,99624.03
2023-01-12T22:58:34.548Z,99622.41
2023-01-12T23:01:08.371Z,99637.78
2023-01-12T23:03:37.024Z,99622.84
2023-01-12T23:06:06.264Z,99627.19
2023-01-12T23:08:34.078Z,99619.84
2023-01-12T23:11:05.896Z,99623.13
2023-01-12T23:13:33.893Z,99641.13
2023-01-12T23:16:04.315Z,99649.56
2023-01-12T23:18:34.623Z,99655.03
2023-01-12T23:21:04.280Z,99668.84
2023-01-12T23:23:32.867Z,99651.19
2023-01-12T23:26:03.877Z,99645.50
2023-01-12T23:28:35.566Z,99653.97
2023-01-12T23:31:04.964Z,99659.94
2023-01-12T23:33:34.202Z,99654.69
2023-01-12T23:36:06.550Z,99651.03
2023-01-12T23:38:34.422Z,99652.06
2023-01-12T23:41:10.623Z,99652.50
2023-01-12T23:43:38.529Z,99663.59
2023-01-12T23:46:06.842Z,99653.94
2023-01-12T23:48:35.995Z,99663.16
2023-01-12T23:51:03.860Z,99651.53
2023-01-12T23:53:32.120Z,99646.63
2023-01-12T23:56:05.570Z,99665.81
2023-01-12T23:58:33.738Z,99646.03
